sensor_id;sensor_type;location;lat;lon;timestamp;P1;durP1;ratioP1;P2;durP2;ratioP2
68353;SDS011;55274;43.060;25.618;2023-01-10T00:00:30;18.85;;;6.30;;
68353;SDS011;55274;43.060;25.618;2023-01-10T00:03:02;15.07;;;6.38;;
68353;SDS011;55274;43.060;25.618;2023-01-10T00:05:29;14.82;;;6.70;;
68353;SDS011;55274;43.060;25.618;2023-01-10T00:07:55;15.73;;;7.30;;
68353;SDS011;55274;43.060;25.618;2023-01-10T00:10:23;16.77;;;7.05;;
68353;SDS011;55274;43.060;25.618;2023-01-10T00:12:49;14.50;;;7.00;;
68353;SDS011;55274;43.060;25.618;2023-01-10T00:15:34;20.10;;;7.07;;
68353;SDS011;55274;43.060;25.618;2023-01-10T00:18:00;18.05;;;7.30;;
68353;SDS011;55274;43.060;25.618;2023-01-10T00:20:26;16.77;;;7.25;;
68353;SDS011;55274;43.060;25.618;2023-01-10T00:22:52;18.02;;;7.30;;
68353;SDS011;55274;43.060;25.618;2023-01-10T00:25:18;20.05;;;6.43;;
68353;SDS011;55274;43.060;25.618;2023-01-10T00:27:45;16.20;;;8.13;;
68353;SDS011;55274;43.060;25.618;2023-01-10T00:30:21;15.35;;;7.15;;
68353;SDS011;55274;43.060;25.618;2023-01-10T00:32:47;12.00;;;6.15;;
68353;SDS011;55274;43.060;25.618;2023-01-10T00:35:13;12.32;;;5.97;;
68353;SDS011;55274;43.060;25.618;2023-01-10T00:37:39;17.35;;;7.35;;
68353;SDS011;55274;43.060;25.618;2023-01-10T00:40:06;14.43;;;6.50;;
68353;SDS011;55274;43.060;25.618;2023-01-10T00:42:33;16.30;;;6.75;;
68353;SDS011;55274;43.060;25.618;2023-01-10T00:45:18;15.18;;;6.72;;
68353;SDS011;55274;43.060;25.618;2023-01-10T00:47:44;16.15;;;6.60;;
68353;SDS011;55274;43.060;25.618;2023-01-10T00:50:10;15.40;;;6.65;;
68353;SDS011;55274;43.060;25.618;2023-01-10T00:52:36;13.07;;;6.53;;
68353;SDS011;55274;43.060;25.618;2023-01-10T00:55:02;13.15;;;5.95;;
68353;SDS011;55274;43.060;25.618;2023-01-10T00:57:28;25.83;;;6.63;;
68353;SDS011;55274;43.060;25.618;2023-01-10T00:59:53;18.02;;;7.03;;
68353;SDS011;55274;43.060;25.618;2023-01-10T01:02:19;13.55;;;5.95;;
68353;SDS011;55274;43.060;25.618;2023-01-10T01:04:45;11.95;;;5.43;;
68353;SDS011;55274;43.060;25.618;2023-01-10T01:07:11;13.57;;;5.68;;
68353;SDS011;55274;43.060;25.618;2023-01-10T01:09:37;13.45;;;6.03;;
68353;SDS011;55274;43.060;25.618;2023-01-10T01:12:23;18.40;;;7.18;;
68353;SDS011;55274;43.060;25.618;2023-01-10T01:14:49;18.00;;;6.07;;
68353;SDS011;55274;43.060;25.618;2023-01-10T01:17:14;29.95;;;7.97;;
68353;SDS011;55274;43.060;25.618;2023-01-10T01:19:41;17.67;;;6.95;;
68353;SDS011;55274;43.060;25.618;2023-01-10T01:22:07;18.45;;;7.03;;
68353;SDS011;55274;43.060;25.618;2023-01-10T01:24:33;16.23;;;6.63;;
68353;SDS011;55274;43.060;25.618;2023-01-10T01:26:59;20.70;;;8.55;;
68353;SDS011;55274;43.060;25.618;2023-01-10T01:29:24;21.83;;;8.10;;
68353;SDS011;55274;43.060;25.618;2023-01-10T01:31:50;18.85;;;7.60;;
68353;SDS011;55274;43.060;25.618;2023-01-10T01:34:16;20.52;;;7.50;;
68353;SDS011;55274;43.060;25.618;2023-01-10T01:36:42;19.05;;;8.23;;
68353;SDS011;55274;43.060;25.618;2023-01-10T01:39:07;22.88;;;9.00;;
68353;SDS011;55274;43.060;25.618;2023-01-10T01:41:33;22.75;;;8.27;;
68353;SDS011;55274;43.060;25.618;2023-01-10T01:44:18;18.80;;;7.70;;
68353;SDS011;55274;43.060;25.618;2023-01-10T01:46:45;23.45;;;9.38;;
68353;SDS011;55274;43.060;25.618;2023-01-10T01:49:22;18.60;;;7.97;;
68353;SDS011;55274;43.060;25.618;2023-01-10T01:51:49;22.92;;;8.90;;
68353;SDS011;55274;43.060;25.618;2023-01-10T01:56:47;20.30;;;7.40;;
68353;SDS011;55274;43.060;25.618;2023-01-10T01:59:29;21.80;;;8.05;;
68353;SDS011;55274;43.060;25.618;2023-01-10T02:02:06;24.23;;;7.90;;
68353;SDS011;55274;43.060;25.618;2023-01-10T02:04:40;18.25;;;8.25;;
68353;SDS011;55274;43.060;25.618;2023-01-10T02:07:15;20.13;;;7.65;;
68353;SDS011;55274;43.060;25.618;2023-01-10T02:09:46;16.90;;;7.57;;
68353;SDS011;55274;43.060;25.618;2023-01-10T02:12:19;18.45;;;7.75;;
68353;SDS011;55274;43.060;25.618;2023-01-10T02:14:46;18.83;;;7.60;;
68353;SDS011;55274;43.060;25.618;2023-01-10T02:17:14;18.75;;;7.20;;
68353;SDS011;55274;43.060;25.618;2023-01-10T02:41:25;16.80;;;6.60;;
68353;SDS011;55274;43.060;25.618;2023-01-10T02:46:54;17.35;;;6.30;;
68353;SDS011;55274;43.060;25.618;2023-01-10T02:49:20;15.02;;;5.43;;
68353;SDS011;55274;43.060;25.618;2023-01-10T02:51:46;19.60;;;5.78;;
68353;SDS011;55274;43.060;25.618;2023-01-10T02:54:24;17.08;;;6.72;;
68353;SDS011;55274;43.060;25.618;2023-01-10T02:59:43;12.93;;;5.25;;
68353;SDS011;55274;43.060;25.618;2023-01-10T03:11:02;10.95;;;5.78;;
68353;SDS011;55274;43.060;25.618;2023-01-10T03:13:45;15.55;;;6.15;;
68353;SDS011;55274;43.060;25.618;2023-01-10T03:16:17;14.82;;;6.05;;
68353;SDS011;55274;43.060;25.618;2023-01-10T03:18:49;11.80;;;5.60;;
68353;SDS011;55274;43.060;25.618;2023-01-10T03:21:19;12.65;;;5.75;;
68353;SDS011;55274;43.060;25.618;2023-01-10T03:23:48;12.90;;;5.93;;
68353;SDS011;55274;43.060;25.618;2023-01-10T03:26:18;12.43;;;5.50;;
68353;SDS011;55274;43.060;25.618;2023-01-10T03:28:58;13.43;;;6.05;;
68353;SDS011;55274;43.060;25.618;2023-01-10T03:31:30;17.67;;;5.63;;
68353;SDS011;55274;43.060;25.618;2023-01-10T03:34:00;12.90;;;5.78;;
68353;SDS011;55274;43.060;25.618;2023-01-10T03:36:27;17.02;;;5.95;;
68353;SDS011;55274;43.060;25.618;2023-01-10T03:39:04;15.80;;;6.15;;
68353;SDS011;55274;43.060;25.618;2023-01-10T03:52:42;10.48;;;4.97;;
68353;SDS011;55274;43.060;25.618;2023-01-10T03:55:10;13.02;;;5.20;;
68353;SDS011;55274;43.060;25.618;2023-01-10T03:57:40;18.88;;;5.63;;
68353;SDS011;55274;43.060;25.618;2023-01-10T04:00:08;11.15;;;5.35;;
68353;SDS011;55274;43.060;25.618;2023-01-10T04:02:34;10.77;;;5.28;;
68353;SDS011;55274;43.060;25.618;2023-01-10T04:05:00;11.38;;;5.57;;
68353;SDS011;55274;43.060;25.618;2023-01-10T04:07:26;11.57;;;5.93;;
68353;SDS011;55274;43.060;25.618;2023-01-10T04:09:52;13.65;;;6.30;;
68353;SDS011;55274;43.060;25.618;2023-01-10T04:12:18;12.05;;;6.15;;
68353;SDS011;55274;43.060;25.618;2023-01-10T04:14:44;12.65;;;5.97;;
68353;SDS011;55274;43.060;25.618;2023-01-10T04:17:11;16.45;;;6.28;;
68353;SDS011;55274;43.060;25.618;2023-01-10T04:19:41;13.32;;;6.18;;
68353;SDS011;55274;43.060;25.618;2023-01-10T04:22:07;16.98;;;6.50;;
68353;SDS011;55274;43.060;25.618;2023-01-10T04:24:33;13.90;;;6.15;;
68353;SDS011;55274;43.060;25.618;2023-01-10T04:26:59;10.95;;;6.53;;
68353;SDS011;55274;43.060;25.618;2023-01-10T04:29:25;11.48;;;6.60;;
68353;SDS011;55274;43.060;25.618;2023-01-10T04:31:51;12.50;;;6.22;;
68353;SDS011;55274;43.060;25.618;2023-01-10T04:34:17;9.88;;;5.30;;
68353;SDS011;55274;43.060;25.618;2023-01-10T04:36:47;12.30;;;5.80;;
68353;SDS011;55274;43.060;25.618;2023-01-10T04:39:14;20.85;;;6.82;;
68353;SDS011;55274;43.060;25.618;2023-01-10T04:41:39;14.80;;;6.82;;
68353;SDS011;55274;43.060;25.618;2023-01-10T04:44:05;32.65;;;7.10;;
68353;SDS011;55274;43.060;25.618;2023-01-10T04:46:31;18.08;;;7.00;;
68353;SDS011;55274;43.060;25.618;2023-01-10T04:48:57;30.80;;;7.10;;
68353;SDS011;55274;43.060;25.618;2023-01-10T04:51:24;19.88;;;6.32;;
68353;SDS011;55274;43.060;25.618;2023-01-10T04:53:51;44.10;;;7.97;;
68353;SDS011;55274;43.060;25.618;2023-01-10T04:56:18;16.38;;;6.60;;
68353;SDS011;55274;43.060;25.618;2023-01-10T04:58:46;10.77;;;5.53;;
68353;SDS011;55274;43.060;25.618;2023-01-10T05:01:13;12.70;;;6.47;;
68353;SDS011;55274;43.060;25.618;2023-01-10T05:03:41;10.43;;;6.00;;
68353;SDS011;55274;43.060;25.618;2023-01-10T05:06:07;10.63;;;5.32;;
68353;SDS011;55274;43.060;25.618;2023-01-10T05:08:33;14.35;;;5.93;;
68353;SDS011;55274;43.060;25.618;2023-01-10T05:10:59;10.88;;;5.35;;
68353;SDS011;55274;43.060;25.618;2023-01-10T05:13:25;11.02;;;5.45;;
68353;SDS011;55274;43.060;25.618;2023-01-10T05:16:00;13.88;;;6.03;;
68353;SDS011;55274;43.060;25.618;2023-01-10T05:18:26;12.50;;;5.60;;
68353;SDS011;55274;43.060;25.618;2023-01-10T05:20:58;11.70;;;5.38;;
68353;SDS011;55274;43.060;25.618;2023-01-10T05:23:25;15.50;;;5.82;;
68353;SDS011;55274;43.060;25.618;2023-01-10T05:25:50;10.48;;;5.50;;
68353;SDS011;55274;43.060;25.618;2023-01-10T05:28:16;9.80;;;5.45;;
68353;SDS011;55274;43.060;25.618;2023-01-10T05:30:42;16.20;;;5.90;;
68353;SDS011;55274;43.060;25.618;2023-01-10T05:33:08;15.95;;;6.10;;
68353;SDS011;55274;43.060;25.618;2023-01-10T05:35:33;8.80;;;4.75;;
68353;SDS011;55274;43.060;25.618;2023-01-10T05:37:59;10.75;;;5.03;;
68353;SDS011;55274;43.060;25.618;2023-01-10T05:40:25;10.63;;;4.80;;
68353;SDS011;55274;43.060;25.618;2023-01-10T05:42:51;10.40;;;5.47;;
68353;SDS011;55274;43.060;25.618;2023-01-10T05:45:16;15.05;;;6.32;;
68353;SDS011;55274;43.060;25.618;2023-01-10T05:47:42;10.85;;;4.88;;
68353;SDS011;55274;43.060;25.618;2023-01-10T05:50:09;9.65;;;4.82;;
68353;SDS011;55274;43.060;25.618;2023-01-10T05:52:35;7.05;;;4.43;;
68353;SDS011;55274;43.060;25.618;2023-01-10T05:55:01;9.57;;;5.03;;
68353;SDS011;55274;43.060;25.618;2023-01-10T05:57:26;15.43;;;5.65;;
68353;SDS011;55274;43.060;25.618;2023-01-10T05:59:52;11.23;;;5.10;;
68353;SDS011;55274;43.060;25.618;2023-01-10T06:02:18;11.55;;;5.30;;
68353;SDS011;55274;43.060;25.618;2023-01-10T06:04:44;16.13;;;6.10;;
68353;SDS011;55274;43.060;25.618;2023-01-10T06:07:09;9.10;;;5.03;;
68353;SDS011;55274;43.060;25.618;2023-01-10T06:09:35;12.57;;;4.85;;
68353;SDS011;55274;43.060;25.618;2023-01-10T06:12:01;7.43;;;4.40;;
68353;SDS011;55274;43.060;25.618;2023-01-10T06:14:27;9.35;;;5.20;;
68353;SDS011;55274;43.060;25.618;2023-01-10T06:16:52;10.35;;;5.30;;
68353;SDS011;55274;43.060;25.618;2023-01-10T06:19:18;12.05;;;5.90;;
68353;SDS011;55274;43.060;25.618;2023-01-10T06:21:44;10.55;;;4.65;;
68353;SDS011;55274;43.060;25.618;2023-01-10T06:24:10;18.48;;;5.20;;
68353;SDS011;55274;43.060;25.618;2023-01-10T06:26:37;10.48;;;5.38;;
68353;SDS011;55274;43.060;25.618;2023-01-10T06:29:02;17.95;;;5.80;;
68353;SDS011;55274;43.060;25.618;2023-01-10T06:31:28;30.15;;;6.55;;
68353;SDS011;55274;43.060;25.618;2023-01-10T06:33:54;9.27;;;4.95;;
68353;SDS011;55274;43.060;25.618;2023-01-10T06:36:20;22.75;;;5.75;;
68353;SDS011;55274;43.060;25.618;2023-01-10T06:38:46;12.57;;;5.70;;
68353;SDS011;55274;43.060;25.618;2023-01-10T06:41:11;18.98;;;5.47;;
68353;SDS011;55274;43.060;25.618;2023-01-10T06:43:44;10.52;;;5.47;;
68353;SDS011;55274;43.060;25.618;2023-01-10T06:46:14;15.02;;;5.22;;
68353;SDS011;55274;43.060;25.618;2023-01-10T06:48:41;20.95;;;6.22;;
68353;SDS011;55274;43.060;25.618;2023-01-10T06:51:09;22.58;;;6.78;;
68353;SDS011;55274;43.060;25.618;2023-01-10T06:53:35;19.95;;;6.25;;
68353;SDS011;55274;43.060;25.618;2023-01-10T06:56:01;12.07;;;5.75;;
68353;SDS011;55274;43.060;25.618;2023-01-10T06:58:27;22.75;;;6.20;;
68353;SDS011;55274;43.060;25.618;2023-01-10T07:00:53;10.48;;;5.30;;
68353;SDS011;55274;43.060;25.618;2023-01-10T07:03:19;13.00;;;5.03;;
68353;SDS011;55274;43.060;25.618;2023-01-10T07:05:45;9.80;;;5.22;;
68353;SDS011;55274;43.060;25.618;2023-01-10T07:08:11;13.88;;;5.88;;
68353;SDS011;55274;43.060;25.618;2023-01-10T07:10:38;9.13;;;4.82;;
68353;SDS011;55274;43.060;25.618;2023-01-10T07:13:05;8.50;;;5.03;;
68353;SDS011;55274;43.060;25.618;2023-01-10T07:15:31;7.50;;;4.53;;
68353;SDS011;55274;43.060;25.618;2023-01-10T07:17:57;9.98;;;5.07;;
68353;SDS011;55274;43.060;25.618;2023-01-10T07:20:23;9.15;;;5.18;;
68353;SDS011;55274;43.060;25.618;2023-01-10T07:22:56;9.13;;;4.57;;
68353;SDS011;55274;43.060;25.618;2023-01-10T07:25:24;13.77;;;5.32;;
68353;SDS011;55274;43.060;25.618;2023-01-10T07:27:51;14.32;;;5.50;;
68353;SDS011;55274;43.060;25.618;2023-01-10T07:30:21;11.15;;;5.35;;
68353;SDS011;55274;43.060;25.618;2023-01-10T07:32:54;13.75;;;6.50;;
68353;SDS011;55274;43.060;25.618;2023-01-10T07:35:21;11.00;;;5.50;;
68353;SDS011;55274;43.060;25.618;2023-01-10T07:37:47;11.95;;;5.88;;
68353;SDS011;55274;43.060;25.618;2023-01-10T07:40:13;12.27;;;6.18;;
68353;SDS011;55274;43.060;25.618;2023-01-10T07:42:39;14.18;;;6.97;;
68353;SDS011;55274;43.060;25.618;2023-01-10T07:45:04;14.52;;;7.07;;
68353;SDS011;55274;43.060;25.618;2023-01-10T07:47:32;16.92;;;6.95;;
68353;SDS011;55274;43.060;25.618;2023-01-10T07:49:58;16.55;;;7.80;;
68353;SDS011;55274;43.060;25.618;2023-01-10T07:52:24;19.95;;;8.13;;
68353;SDS011;55274;43.060;25.618;2023-01-10T07:54:50;23.45;;;8.55;;
68353;SDS011;55274;43.060;25.618;2023-01-10T07:57:17;27.85;;;7.78;;
68353;SDS011;55274;43.060;25.618;2023-01-10T07:59:43;25.23;;;7.55;;
68353;SDS011;55274;43.060;25.618;2023-01-10T08:02:09;19.63;;;7.82;;
68353;SDS011;55274;43.060;25.618;2023-01-10T08:04:35;31.42;;;8.60;;
68353;SDS011;55274;43.060;25.618;2023-01-10T08:07:02;30.10;;;7.72;;
68353;SDS011;55274;43.060;25.618;2023-01-10T08:09:29;23.13;;;9.60;;
68353;SDS011;55274;43.060;25.618;2023-01-10T08:11:57;18.60;;;8.50;;
68353;SDS011;55274;43.060;25.618;2023-01-10T08:14:23;17.27;;;8.80;;
68353;SDS011;55274;43.060;25.618;2023-01-10T08:16:49;22.65;;;10.48;;
68353;SDS011;55274;43.060;25.618;2023-01-10T08:19:14;18.67;;;9.02;;
68353;SDS011;55274;43.060;25.618;2023-01-10T08:21:42;21.75;;;9.48;;
68353;SDS011;55274;43.060;25.618;2023-01-10T08:24:08;15.85;;;8.02;;
68353;SDS011;55274;43.060;25.618;2023-01-10T08:26:34;21.98;;;9.10;;
68353;SDS011;55274;43.060;25.618;2023-01-10T08:29:00;13.18;;;7.07;;
68353;SDS011;55274;43.060;25.618;2023-01-10T08:31:26;13.52;;;6.40;;
68353;SDS011;55274;43.060;25.618;2023-01-10T08:33:51;12.68;;;5.95;;
68353;SDS011;55274;43.060;25.618;2023-01-10T08:36:18;10.57;;;6.18;;
68353;SDS011;55274;43.060;25.618;2023-01-10T08:38:46;12.80;;;7.07;;
68353;SDS011;55274;43.060;25.618;2023-01-10T08:41:12;12.85;;;7.40;;
68353;SDS011;55274;43.060;25.618;2023-01-10T08:43:38;20.60;;;7.95;;
68353;SDS011;55274;43.060;25.618;2023-01-10T08:46:07;22.55;;;8.75;;
68353;SDS011;55274;43.060;25.618;2023-01-10T08:48:33;24.15;;;9.15;;
68353;SDS011;55274;43.060;25.618;2023-01-10T08:51:03;24.00;;;8.35;;
68353;SDS011;55274;43.060;25.618;2023-01-10T08:53:30;25.67;;;8.70;;
68353;SDS011;55274;43.060;25.618;2023-01-10T08:55:56;18.58;;;8.40;;
68353;SDS011;55274;43.060;25.618;2023-01-10T08:58:22;18.05;;;8.13;;
68353;SDS011;55274;43.060;25.618;2023-01-10T09:00:48;30.98;;;9.00;;
68353;SDS011;55274;43.060;25.618;2023-01-10T09:03:14;27.80;;;10.02;;
68353;SDS011;55274;43.060;25.618;2023-01-10T09:05:40;41.58;;;9.20;;
68353;SDS011;55274;43.060;25.618;2023-01-10T09:08:06;40.38;;;10.90;;
68353;SDS011;55274;43.060;25.618;2023-01-10T09:10:33;34.78;;;10.80;;
68353;SDS011;55274;43.060;25.618;2023-01-10T09:13:00;34.08;;;9.90;;
68353;SDS011;55274;43.060;25.618;2023-01-10T09:15:30;32.58;;;11.10;;
68353;SDS011;55274;43.060;25.618;2023-01-10T09:17:59;20.55;;;9.52;;
68353;SDS011;55274;43.060;25.618;2023-01-10T09:20:27;19.52;;;9.30;;
68353;SDS011;55274;43.060;25.618;2023-01-10T09:22:54;18.73;;;9.45;;
68353;SDS011;55274;43.060;25.618;2023-01-10T09:25:21;27.35;;;8.40;;
68353;SDS011;55274;43.060;25.618;2023-01-10T09:27:47;24.65;;;8.48;;
68353;SDS011;55274;43.060;25.618;2023-01-10T09:30:20;24.65;;;10.60;;
68353;SDS011;55274;43.060;25.618;2023-01-10T09:32:53;26.45;;;9.60;;
68353;SDS011;55274;43.060;25.618;2023-01-10T09:35:20;30.27;;;10.00;;
68353;SDS011;55274;43.060;25.618;2023-01-10T09:37:46;39.42;;;11.25;;
68353;SDS011;55274;43.060;25.618;2023-01-10T09:40:13;43.78;;;11.75;;
68353;SDS011;55274;43.060;25.618;2023-01-10T09:54:00;26.15;;;9.65;;
68353;SDS011;55274;43.060;25.618;2023-01-10T09:56:30;22.67;;;9.95;;
68353;SDS011;55274;43.060;25.618;2023-01-10T09:58:58;27.17;;;8.95;;
68353;SDS011;55274;43.060;25.618;2023-01-10T10:01:28;25.85;;;10.80;;
68353;SDS011;55274;43.060;25.618;2023-01-10T10:04:11;23.42;;;9.45;;
68353;SDS011;55274;43.060;25.618;2023-01-10T10:09:11;43.42;;;10.02;;
68353;SDS011;55274;43.060;25.618;2023-01-10T10:11:48;39.72;;;9.68;;
68353;SDS011;55274;43.060;25.618;2023-01-10T10:14:40;42.03;;;9.95;;
68353;SDS011;55274;43.060;25.618;2023-01-10T10:22:24;44.30;;;12.10;;
68353;SDS011;55274;43.060;25.618;2023-01-10T10:33:37;35.55;;;10.18;;
68353;SDS011;55274;43.060;25.618;2023-01-10T10:38:49;22.55;;;8.23;;
68353;SDS011;55274;43.060;25.618;2023-01-10T10:43:51;24.55;;;7.95;;
68353;SDS011;55274;43.060;25.618;2023-01-10T10:46:19;6.55;;;3.50;;
68353;SDS011;55274;43.060;25.618;2023-01-10T10:51:25;17.90;;;5.88;;
68353;SDS011;55274;43.060;25.618;2023-01-10T10:54:00;17.27;;;5.43;;
68353;SDS011;55274;43.060;25.618;2023-01-10T10:56:26;13.18;;;3.85;;
68353;SDS011;55274;43.060;25.618;2023-01-10T10:58:54;12.32;;;3.33;;
68353;SDS011;55274;43.060;25.618;2023-01-10T11:01:22;6.13;;;3.35;;
68353;SDS011;55274;43.060;25.618;2023-01-10T11:03:51;10.43;;;4.55;;
68353;SDS011;55274;43.060;25.618;2023-01-10T11:06:32;9.63;;;4.07;;
68353;SDS011;55274;43.060;25.618;2023-01-10T11:09:03;7.68;;;3.58;;
68353;SDS011;55274;43.060;25.618;2023-01-10T11:11:42;11.27;;;3.70;;
68353;SDS011;55274;43.060;25.618;2023-01-10T11:14:10;6.20;;;3.65;;
68353;SDS011;55274;43.060;25.618;2023-01-10T11:16:43;8.35;;;4.40;;
68353;SDS011;55274;43.060;25.618;2023-01-10T11:19:19;7.00;;;3.92;;
68353;SDS011;55274;43.060;25.618;2023-01-10T11:22:00;6.70;;;3.50;;
68353;SDS011;55274;43.060;25.618;2023-01-10T11:24:48;18.17;;;5.63;;
68353;SDS011;55274;43.060;25.618;2023-01-10T11:27:19;16.05;;;4.80;;
68353;SDS011;55274;43.060;25.618;2023-01-10T11:30:05;11.55;;;4.82;;
68353;SDS011;55274;43.060;25.618;2023-01-10T11:32:37;38.60;;;7.47;;
68353;SDS011;55274;43.060;25.618;2023-01-10T11:35:54;20.52;;;6.72;;
68353;SDS011;55274;43.060;25.618;2023-01-10T11:43:27;9.25;;;5.30;;
68353;SDS011;55274;43.060;25.618;2023-01-10T11:46:12;9.00;;;5.22;;
68353;SDS011;55274;43.060;25.618;2023-01-10T11:53:48;13.43;;;5.10;;
68353;SDS011;55274;43.060;25.618;2023-01-10T11:56:23;9.48;;;5.13;;
68353;SDS011;55274;43.060;25.618;2023-01-10T11:58:52;11.50;;;5.05;;
68353;SDS011;55274;43.060;25.618;2023-01-10T12:04:03;9.65;;;3.90;;
68353;SDS011;55274;43.060;25.618;2023-01-10T12:06:29;11.00;;;5.00;;
68353;SDS011;55274;43.060;25.618;2023-01-10T12:08:56;11.55;;;5.07;;
68353;SDS011;55274;43.060;25.618;2023-01-10T12:11:29;10.75;;;4.75;;
68353;SDS011;55274;43.060;25.618;2023-01-10T12:13:57;8.18;;;4.28;;
68353;SDS011;55274;43.060;25.618;2023-01-10T12:18:55;13.65;;;4.18;;
68353;SDS011;55274;43.060;25.618;2023-01-10T12:21:30;13.25;;;4.13;;
68353;SDS011;55274;43.060;25.618;2023-01-10T12:24:11;15.40;;;3.70;;
68353;SDS011;55274;43.060;25.618;2023-01-10T12:26:48;6.20;;;3.58;;
68353;SDS011;55274;43.060;25.618;2023-01-10T12:29:19;6.85;;;3.35;;
68353;SDS011;55274;43.060;25.618;2023-01-10T12:31:49;8.40;;;3.72;;
68353;SDS011;55274;43.060;25.618;2023-01-10T12:34:19;11.65;;;4.88;;
68353;SDS011;55274;43.060;25.618;2023-01-10T12:39:31;14.57;;;6.88;;
68353;SDS011;55274;43.060;25.618;2023-01-10T12:45:09;6.50;;;3.55;;
68353;SDS011;55274;43.060;25.618;2023-01-10T12:55:43;6.65;;;3.30;;
68353;SDS011;55274;43.060;25.618;2023-01-10T12:58:20;7.30;;;3.20;;
68353;SDS011;55274;43.060;25.618;2023-01-10T13:00:52;7.18;;;3.83;;
68353;SDS011;55274;43.060;25.618;2023-01-10T13:03:23;14.95;;;5.07;;
68353;SDS011;55274;43.060;25.618;2023-01-10T13:05:53;13.30;;;4.93;;
68353;SDS011;55274;43.060;25.618;2023-01-10T13:08:22;10.07;;;5.05;;
68353;SDS011;55274;43.060;25.618;2023-01-10T13:10:52;7.60;;;4.13;;
68353;SDS011;55274;43.060;25.618;2023-01-10T13:13:36;7.72;;;4.30;;
68353;SDS011;55274;43.060;25.618;2023-01-10T13:21:33;12.23;;;3.85;;
68353;SDS011;55274;43.060;25.618;2023-01-10T13:26:50;22.20;;;6.47;;
68353;SDS011;55274;43.060;25.618;2023-01-10T13:29:20;13.73;;;5.82;;
68353;SDS011;55274;43.060;25.618;2023-01-10T13:32:14;15.15;;;4.65;;
68353;SDS011;55274;43.060;25.618;2023-01-10T13:34:46;10.27;;;4.30;;
68353;SDS011;55274;43.060;25.618;2023-01-10T13:37:32;8.57;;;4.70;;
68353;SDS011;55274;43.060;25.618;2023-01-10T13:40:02;9.23;;;4.18;;
68353;SDS011;55274;43.060;25.618;2023-01-10T13:45:16;9.90;;;4.82;;
68353;SDS011;55274;43.060;25.618;2023-01-10T14:04:34;12.02;;;6.38;;
68353;SDS011;55274;43.060;25.618;2023-01-10T14:09:48;19.60;;;9.60;;
68353;SDS011;55274;43.060;25.618;2023-01-10T14:14:49;18.92;;;9.13;;
68353;SDS011;55274;43.060;25.618;2023-01-10T14:17:20;23.23;;;11.30;;
68353;SDS011;55274;43.060;25.618;2023-01-10T14:19:47;56.60;;;21.73;;
68353;SDS011;55274;43.060;25.618;2023-01-10T14:22:23;28.83;;;13.45;;
68353;SDS011;55274;43.060;25.618;2023-01-10T14:24:58;16.95;;;8.13;;
68353;SDS011;55274;43.060;25.618;2023-01-10T14:27:26;18.88;;;8.70;;
68353;SDS011;55274;43.060;25.618;2023-01-10T14:30:06;26.17;;;11.63;;
68353;SDS011;55274;43.060;25.618;2023-01-10T14:32:39;31.70;;;13.40;;
68353;SDS011;55274;43.060;25.618;2023-01-10T14:35:08;17.00;;;8.90;;
68353;SDS011;55274;43.060;25.618;2023-01-10T14:37:41;18.83;;;7.95;;
68353;SDS011;55274;43.060;25.618;2023-01-10T14:42:46;16.90;;;8.63;;
68353;SDS011;55274;43.060;25.618;2023-01-10T14:45:22;18.20;;;7.82;;
68353;SDS011;55274;43.060;25.618;2023-01-10T14:48:21;27.80;;;11.45;;
68353;SDS011;55274;43.060;25.618;2023-01-10T14:53:46;36.95;;;14.05;;
68353;SDS011;55274;43.060;25.618;2023-01-10T14:59:14;32.92;;;14.27;;
68353;SDS011;55274;43.060;25.618;2023-01-10T15:01:40;32.47;;;14.60;;
68353;SDS011;55274;43.060;25.618;2023-01-10T15:04:11;34.95;;;14.48;;
68353;SDS011;55274;43.060;25.618;2023-01-10T15:09:36;19.17;;;10.13;;
68353;SDS011;55274;43.060;25.618;2023-01-10T15:12:04;20.80;;;9.50;;
68353;SDS011;55274;43.060;25.618;2023-01-10T15:14:34;19.00;;;9.45;;
68353;SDS011;55274;43.060;25.618;2023-01-10T15:17:02;20.83;;;9.55;;
68353;SDS011;55274;43.060;25.618;2023-01-10T15:19:33;64.78;;;23.95;;
68353;SDS011;55274;43.060;25.618;2023-01-10T15:22:02;30.33;;;13.13;;
68353;SDS011;55274;43.060;25.618;2023-01-10T15:24:40;11.60;;;6.85;;
68353;SDS011;55274;43.060;25.618;2023-01-10T15:27:10;11.50;;;6.57;;
68353;SDS011;55274;43.060;25.618;2023-01-10T15:29:39;12.68;;;7.07;;
68353;SDS011;55274;43.060;25.618;2023-01-10T15:32:21;11.45;;;6.63;;
68353;SDS011;55274;43.060;25.618;2023-01-10T15:34:58;11.30;;;6.65;;
68353;SDS011;55274;43.060;25.618;2023-01-10T15:37:25;10.20;;;5.95;;
68353;SDS011;55274;43.060;25.618;2023-01-10T15:39:58;13.35;;;6.28;;
68353;SDS011;55274;43.060;25.618;2023-01-10T15:42:24;13.38;;;6.60;;
68353;SDS011;55274;43.060;25.618;2023-01-10T15:44:51;12.82;;;6.57;;
68353;SDS011;55274;43.060;25.618;2023-01-10T15:52:48;9.63;;;5.30;;
68353;SDS011;55274;43.060;25.618;2023-01-10T16:00:54;18.15;;;7.75;;
68353;SDS011;55274;43.060;25.618;2023-01-10T16:03:22;17.25;;;8.23;;
68353;SDS011;55274;43.060;25.618;2023-01-10T16:05:52;12.27;;;5.45;;
68353;SDS011;55274;43.060;25.618;2023-01-10T16:08:24;7.72;;;4.30;;
68353;SDS011;55274;43.060;25.618;2023-01-10T16:10:52;8.25;;;3.90;;
68353;SDS011;55274;43.060;25.618;2023-01-10T16:13:20;7.47;;;3.28;;
68353;SDS011;55274;43.060;25.618;2023-01-10T16:15:52;5.55;;;2.72;;
68353;SDS011;55274;43.060;25.618;2023-01-10T16:18:22;6.57;;;2.60;;
68353;SDS011;55274;43.060;25.618;2023-01-10T16:20:49;3.70;;;2.33;;
68353;SDS011;55274;43.060;25.618;2023-01-10T16:23:21;4.47;;;2.00;;
68353;SDS011;55274;43.060;25.618;2023-01-10T16:25:51;2.70;;;1.63;;
68353;SDS011;55274;43.060;25.618;2023-01-10T16:28:19;3.83;;;1.75;;
68353;SDS011;55274;43.060;25.618;2023-01-10T16:30:46;5.45;;;1.63;;
68353;SDS011;55274;43.060;25.618;2023-01-10T16:33:16;4.15;;;2.17;;
68353;SDS011;55274;43.060;25.618;2023-01-10T16:35:47;3.90;;;1.88;;
68353;SDS011;55274;43.060;25.618;2023-01-10T16:38:14;3.90;;;2.08;;
68353;SDS011;55274;43.060;25.618;2023-01-10T16:40:43;4.28;;;2.15;;
68353;SDS011;55274;43.060;25.618;2023-01-10T16:43:14;3.53;;;1.60;;
68353;SDS011;55274;43.060;25.618;2023-01-10T16:45:43;3.15;;;2.00;;
68353;SDS011;55274;43.060;25.618;2023-01-10T16:48:12;3.75;;;1.88;;
68353;SDS011;55274;43.060;25.618;2023-01-10T16:50:38;2.78;;;1.80;;
68353;SDS011;55274;43.060;25.618;2023-01-10T16:53:05;2.40;;;1.70;;
68353;SDS011;55274;43.060;25.618;2023-01-10T16:55:36;3.50;;;1.70;;
68353;SDS011;55274;43.060;25.618;2023-01-10T16:58:05;2.88;;;1.83;;
68353;SDS011;55274;43.060;25.618;2023-01-10T17:00:32;3.33;;;1.70;;
68353;SDS011;55274;43.060;25.618;2023-01-10T17:02:58;5.07;;;1.60;;
68353;SDS011;55274;43.060;25.618;2023-01-10T17:05:26;4.03;;;1.67;;
68353;SDS011;55274;43.060;25.618;2023-01-10T17:07:51;3.13;;;1.80;;
68353;SDS011;55274;43.060;25.618;2023-01-10T17:10:17;2.75;;;1.55;;
68353;SDS011;55274;43.060;25.618;2023-01-10T17:12:43;3.08;;;1.60;;
68353;SDS011;55274;43.060;25.618;2023-01-10T17:15:10;1.88;;;1.08;;
68353;SDS011;55274;43.060;25.618;2023-01-10T17:17:38;2.38;;;1.20;;
68353;SDS011;55274;43.060;25.618;2023-01-10T17:20:09;7.43;;;2.63;;
68353;SDS011;55274;43.060;25.618;2023-01-10T17:22:36;5.57;;;2.40;;
68353;SDS011;55274;43.060;25.618;2023-01-10T17:25:02;3.10;;;2.08;;